Terminal Aerodrome Forecast
Issued by NWS

Home | Current Version | Previous Version | Text Only | Print | Product List | Glossary On
Versions: 1 2 3 4 5 6 7 8 9 10 11 12 13 14 15
000
FTUS43 KTOP 202329
TAFMHK
TAF
KMHK 202329Z 2100/2124 11009KT P6SM BKN250
     FM210700 09006KT P6SM VCSH OVC090
     FM211000 10006KT 6SM -RA OVC035
     FM211100 10006KT 6SM -RA OVC030
     FM211300 10006KT 6SM -RA OVC020=

USA.gov is the U.S. government's official web portal to all federal, state and local government web resources and services.